createdAt,value
2022-09-16T00:02:19.434Z,993.91
2022-09-16T00:07:19.359Z,993.90
2022-09-16T00:12:19.279Z,993.80
2022-09-16T00:17:19.238Z,993.76
2022-09-16T00:22:19.227Z,993.77
2022-09-16T00:27:19.036Z,993.79
2022-09-16T00:32:19.108Z,993.79
2022-09-16T00:37:18.925Z,993.78
2022-09-16T00:42:18.994Z,993.82
2022-09-16T00:47:18.843Z,993.86
2022-09-16T00:52:18.938Z,993.81
2022-09-16T00:57:18.829Z,993.84
2022-09-16T01:02:18.858Z,993.84
2022-09-16T01:07:18.663Z,993.83
2022-09-16T01:12:18.563Z,993.84
2022-09-16T01:17:18.506Z,993.87
2022-09-16T01:22:18.501Z,993.89
2022-09-16T01:27:18.467Z,993.86
2022-09-16T01:32:18.420Z,993.87
2022-09-16T01:37:18.364Z,993.90
2022-09-16T01:42:18.290Z,993.89
2022-09-16T01:47:18.225Z,993.85
2022-09-16T01:52:18.121Z,993.81
2022-09-16T01:57:18.050Z,993.82
2022-09-16T02:02:18.102Z,993.74
2022-09-16T02:07:17.994Z,993.74
2022-09-16T02:12:17.930Z,993.67
2022-09-16T02:17:17.862Z,993.70
2022-09-16T02:22:17.786Z,993.70
2022-09-16T02:27:17.845Z,993.69
2022-09-16T02:32:17.761Z,993.72
2022-09-16T02:37:17.615Z,993.69
2022-09-16T02:42:17.581Z,993.74
2022-09-16T02:47:17.492Z,993.68
2022-09-16T02:52:17.456Z,993.74
2022-09-16T02:57:17.481Z,993.67
2022-09-16T03:02:17.308Z,993.69
2022-09-16T03:07:17.377Z,993.65
2022-09-16T03:12:17.225Z,993.54
2022-09-16T03:17:17.272Z,993.51
2022-09-16T03:22:17.108Z,993.47
2022-09-16T03:27:17.099Z,993.44
2022-09-16T03:32:17.007Z,993.47
2022-09-16T03:37:16.984Z,993.44
2022-09-16T03:42:25.792Z,993.53
2022-09-16T03:47:16.891Z,993.48
2022-09-16T03:52:16.850Z,993.52
2022-09-16T03:57:16.756Z,993.46
2022-09-16T04:02:16.706Z,993.40
2022-09-16T04:07:16.611Z,993.40
2022-09-16T04:12:16.589Z,993.37
2022-09-16T04:17:16.511Z,993.27
2022-09-16T04:22:16.599Z,993.27
2022-09-16T04:27:16.510Z,993.27
2022-09-16T04:32:16.430Z,993.27
2022-09-16T04:37:16.439Z,993.32
2022-09-16T04:42:16.295Z,993.35
2022-09-16T04:47:16.177Z,993.34
2022-09-16T04:52:16.110Z,993.32
2022-09-16T04:57:16.083Z,993.34
2022-09-16T05:02:16.093Z,993.35
2022-09-16T05:07:16.068Z,993.34
2022-09-16T05:12:15.937Z,993.36
2022-09-16T05:17:27.859Z,993.35
2022-09-16T05:22:16.815Z,993.41
2022-09-16T05:27:15.845Z,993.33
2022-09-16T05:32:15.702Z,993.31
2022-09-16T05:37:15.751Z,993.32
2022-09-16T05:42:15.605Z,993.28
2022-09-16T05:47:15.488Z,993.30
2022-09-16T05:52:15.461Z,993.36
2022-09-16T05:57:15.432Z,993.37
2022-09-16T06:02:15.443Z,993.40
2022-09-16T06:07:15.293Z,993.34
2022-09-16T06:12:15.251Z,993.39
2022-09-16T06:17:15.186Z,993.42
2022-09-16T06:22:15.140Z,993.40
2022-09-16T06:27:15.130Z,993.43
2022-09-16T06:32:15.091Z,993.47
2022-09-16T06:37:15.008Z,993.49
2022-09-16T06:42:14.935Z,993.33
2022-09-16T06:47:14.875Z,993.35
2022-09-16T06:52:14.764Z,993.33
2022-09-16T06:57:14.806Z,993.40
2022-09-16T07:02:14.726Z,993.38
2022-09-16T07:07:14.732Z,993.45
2022-09-16T07:12:19.359Z,993.43
2022-09-16T07:17:15.648Z,993.44
2022-09-16T07:22:14.550Z,993.51
2022-09-16T07:27:14.396Z,993.58
2022-09-16T07:32:14.505Z,993.61
2022-09-16T07:37:15.445Z,993.60
2022-09-16T07:42:14.479Z,993.71
2022-09-16T07:47:17.821Z,993.65
2022-09-16T07:52:16.250Z,993.65
2022-09-16T07:57:14.088Z,993.65
2022-09-16T08:02:14.211Z,993.70
2022-09-16T08:07:13.995Z,993.72
2022-09-16T08:12:14.033Z,993.74
2022-09-16T08:17:13.889Z,993.74
2022-09-16T08:22:14.004Z,993.71
2022-09-16T08:27:14.916Z,993.70
2022-09-16T08:32:13.782Z,993.70
2022-09-16T08:37:13.720Z,993.69
2022-09-16T08:42:13.667Z,993.78
2022-09-16T08:47:13.652Z,993.62
2022-09-16T08:52:13.504Z,993.79
2022-09-16T08:57:13.515Z,993.68
2022-09-16T09:02:13.844Z,993.70
2022-09-16T09:07:13.791Z,993.75
2022-09-16T09:12:14.384Z,993.63
2022-09-16T09:17:13.156Z,993.80
2022-09-16T09:22:13.119Z,993.63
2022-09-16T09:27:13.370Z,993.58
2022-09-16T09:32:13.053Z,993.61
2022-09-16T09:37:13.056Z,993.52
2022-09-16T09:42:13.496Z,993.68
2022-09-16T09:47:13.078Z,993.62
2022-09-16T09:52:13.873Z,993.64
2022-09-16T09:57:12.936Z,993.65
2022-09-16T10:02:12.885Z,993.54
2022-09-16T10:07:13.164Z,993.46
2022-09-16T10:12:13.627Z,993.54
2022-09-16T10:17:12.679Z,993.59
2022-09-16T10:22:13.764Z,993.68
2022-09-16T10:27:12.684Z,993.44
2022-09-16T10:32:13.500Z,993.47
2022-09-16T10:37:12.402Z,993.34
2022-09-16T10:42:13.328Z,993.31
2022-09-16T10:47:12.280Z,993.25
2022-09-16T10:52:12.177Z,993.24
2022-09-16T10:57:12.185Z,993.30
2022-09-16T11:02:12.870Z,993.37
2022-09-16T11:07:12.136Z,993.35
2022-09-16T11:12:15.552Z,993.24
2022-09-16T11:17:11.947Z,993.20
2022-09-16T11:22:11.839Z,993.24
2022-09-16T11:27:11.876Z,993.27
2022-09-16T11:32:12.755Z,993.10
2022-09-16T11:37:11.714Z,993.00
2022-09-16T11:42:11.812Z,992.98
2022-09-16T11:47:11.553Z,993.02
2022-09-16T11:52:12.567Z,993.15
2022-09-16T11:57:13.273Z,993.18
2022-09-16T12:02:11.759Z,993.26
2022-09-16T12:07:11.729Z,993.40
2022-09-16T12:12:12.640Z,993.41
2022-09-16T12:17:12.231Z,993.51
2022-09-16T12:22:11.131Z,993.52
2022-09-16T12:27:11.146Z,993.54
2022-09-16T12:32:12.482Z,993.62
2022-09-16T12:37:11.229Z,993.56
2022-09-16T12:42:12.153Z,993.38
2022-09-16T12:47:10.932Z,993.35
2022-09-16T12:52:11.044Z,993.20
2022-09-16T12:57:11.069Z,993.24
2022-09-16T13:02:11.133Z,993.37
2022-09-16T13:07:10.826Z,993.25
2022-09-16T13:12:44.104Z,993.22
2022-09-16T13:17:11.575Z,993.33
2022-09-16T13:22:10.474Z,993.40
2022-09-16T13:27:10.828Z,993.40
2022-09-16T13:32:10.480Z,993.33
2022-09-16T13:37:10.490Z,993.36
2022-09-16T13:42:11.324Z,993.41
2022-09-16T13:47:10.413Z,993.51
2022-09-16T13:52:10.289Z,993.59
2022-09-16T13:57:12.796Z,993.65
2022-09-16T14:02:10.320Z,993.74
2022-09-16T14:07:10.324Z,993.87
2022-09-16T14:12:10.270Z,993.76
2022-09-16T14:17:10.027Z,993.69
2022-09-16T14:22:11.257Z,993.57
2022-09-16T14:27:10.946Z,993.62
2022-09-16T14:32:09.962Z,993.53
2022-09-16T14:37:09.867Z,993.46
2022-09-16T14:42:09.729Z,993.41
2022-09-16T14:47:13.003Z,993.43
2022-09-16T14:52:10.708Z,993.46
2022-09-16T14:57:10.622Z,993.44
2022-09-16T15:02:09.529Z,993.41
2022-09-16T15:08:46.826Z,993.41
2022-09-16T15:13:42.257Z,993.42
2022-09-16T15:18:42.189Z,993.52
2022-09-16T15:23:42.138Z,993.46
2022-09-16T15:28:42.091Z,993.42
2022-09-16T15:33:42.031Z,993.41
2022-09-16T15:38:44.547Z,993.34
2022-09-16T15:43:41.994Z,993.28
2022-09-16T15:48:41.868Z,993.15
2022-09-16T15:53:43.604Z,993.23
2022-09-16T15:58:41.796Z,993.23
2022-09-16T16:03:41.687Z,993.39
2022-09-16T16:08:41.653Z,993.35
2022-09-16T16:13:41.663Z,993.38
2022-09-16T16:18:41.626Z,993.39
2022-09-16T16:23:44.930Z,993.54
2022-09-16T16:28:41.441Z,993.40
2022-09-16T16:33:44.058Z,993.52
2022-09-16T16:38:41.377Z,993.59
2022-09-16T16:43:41.309Z,993.60
2022-09-16T16:48:41.347Z,993.59
2022-09-16T16:53:41.183Z,993.57
2022-09-16T16:58:41.093Z,993.60
2022-09-16T17:03:42.018Z,993.63
2022-09-16T17:08:41.098Z,993.67
2022-09-16T17:13:40.934Z,993.76
2022-09-16T17:18:41.026Z,993.78
2022-09-16T17:23:41.866Z,993.78
2022-09-16T17:28:40.845Z,993.97
2022-09-16T17:33:40.851Z,994.04
2022-09-16T18:14:13.036Z,994.29
2022-09-16T18:19:12.963Z,994.28
2022-09-16T18:24:12.991Z,994.29
2022-09-16T18:29:13.066Z,994.34
2022-09-16T18:34:12.798Z,994.38
2022-09-16T18:39:12.797Z,994.38
2022-09-16T18:44:12.679Z,994.45
2022-09-16T18:49:12.616Z,994.35
2022-09-16T18:54:12.560Z,994.44
2022-09-16T18:59:28.136Z,994.47
2022-09-16T19:04:13.511Z,994.48
2022-09-16T19:09:12.416Z,994.41
2022-09-16T19:14:12.359Z,994.53
2022-09-16T21:11:05.181Z,995.22
2022-09-16T21:16:03.321Z,995.34
2022-09-16T21:21:03.188Z,995.29
2022-09-16T21:26:03.189Z,995.35
2022-09-16T21:31:03.337Z,995.33
2022-09-16T21:36:03.168Z,995.35
2022-09-16T21:41:03.045Z,995.37
2022-09-16T21:46:03.033Z,995.40
2022-09-16T21:51:02.947Z,995.39
2022-09-16T21:56:02.851Z,995.35
2022-09-16T22:01:02.916Z,995.33
2022-09-16T22:06:02.748Z,995.36
2022-09-16T22:11:02.728Z,995.38
2022-09-16T22:16:03.098Z,995.45
2022-09-16T22:21:02.663Z,995.42
2022-09-16T22:26:02.506Z,995.44
2022-09-16T22:31:02.491Z,995.48
2022-09-16T22:36:02.403Z,995.47
2022-09-16T22:41:03.364Z,995.50
2022-09-16T22:46:02.584Z,995.47
2022-09-16T22:51:02.300Z,995.45
2022-09-16T22:56:03.433Z,995.51
2022-09-16T23:01:02.106Z,995.49
2022-09-16T23:06:02.163Z,995.49
2022-09-16T23:11:02.052Z,995.45
2022-09-16T23:16:02.085Z,995.51
2022-09-16T23:21:01.910Z,995.53
2022-09-16T23:26:01.836Z,995.49
2022-09-16T23:31:01.857Z,995.44
2022-09-16T23:36:01.937Z,995.45
2022-09-16T23:41:02.726Z,995.50
2022-09-16T23:46:02.874Z,995.48
2022-09-16T23:51:01.730Z,995.49
2022-09-16T23:56:01.649Z,995.47
